createdAt,value
2023-01-25T00:00:09.727Z,969.5900
2023-01-25T00:00:20.839Z,969.5900
2023-01-25T00:00:31.915Z,969.5700
2023-01-25T00:00:42.982Z,969.5700
2023-01-25T00:00:54.109Z,969.5700
2023-01-25T00:01:05.179Z,969.5700
2023-01-25T00:01:16.233Z,969.5900
2023-01-25T00:01:27.387Z,969.5900
2023-01-25T00:01:38.588Z,969.5900
2023-01-25T00:01:49.874Z,969.5700
2023-01-25T00:02:01.032Z,969.5900
2023-01-25T00:02:12.115Z,969.5900
2023-01-25T00:02:23.169Z,969.6100
2023-01-25T00:02:34.330Z,969.6300
2023-01-25T00:02:45.504Z,969.6100
2023-01-25T00:02:56.750Z,969.5900
2023-01-25T00:03:07.913Z,969.5900
2023-01-25T00:03:19.068Z,969.6100
2023-01-25T00:03:30.273Z,969.6100
2023-01-25T00:03:41.476Z,969.6100
2023-01-25T00:03:52.672Z,969.6100
2023-01-25T00:04:03.891Z,969.6100
2023-01-25T00:04:14.956Z,969.5900
2023-01-25T00:04:26.028Z,969.6100
2023-01-25T00:04:37.172Z,969.6100
2023-01-25T00:04:48.343Z,969.6100
2023-01-25T00:04:59.560Z,969.6100
2023-01-25T00:05:10.615Z,969.6300
2023-01-25T00:05:21.700Z,969.6300
2023-01-25T00:05:32.817Z,969.6100
2023-01-25T00:05:44.037Z,969.6100
2023-01-25T00:05:55.225Z,969.6100
2023-01-25T00:06:06.464Z,969.6100
2023-01-25T00:06:17.529Z,969.6300
2023-01-25T00:06:28.602Z,969.6100
2023-01-25T00:06:39.707Z,969.6300
2023-01-25T00:06:50.911Z,969.6100
2023-01-25T00:07:01.976Z,969.5900
2023-01-25T00:07:13.039Z,969.5900
2023-01-25T00:07:24.187Z,969.5700
2023-01-25T00:07:35.391Z,969.5700
2023-01-25T00:07:46.657Z,969.5700
2023-01-25T00:07:57.705Z,969.5900
2023-01-25T00:08:08.732Z,969.5700
2023-01-25T00:08:19.878Z,969.5700
2023-01-25T00:08:30.946Z,969.5500
2023-01-25T00:08:42.268Z,969.5500
2023-01-25T00:08:53.349Z,969.5500
2023-01-25T00:09:04.441Z,969.5300
2023-01-25T00:09:15.580Z,969.5300
2023-01-25T00:09:26.744Z,969.5300
2023-01-25T00:09:37.814Z,969.5500
2023-01-25T00:09:48.887Z,969.5300
2023-01-25T00:10:00.018Z,969.5700
2023-01-25T00:10:11.227Z,969.5500
2023-01-25T00:10:22.279Z,969.5500
2023-01-25T00:10:33.367Z,969.5300
2023-01-25T00:10:44.459Z,969.5300
2023-01-25T00:10:57.617Z,969.5300
2023-01-25T00:11:09.522Z,969.5300
2023-01-25T00:11:20.670Z,969.5300
2023-01-25T00:11:31.865Z,969.5300
2023-01-25T00:11:43.063Z,969.5300
2023-01-25T00:11:54.280Z,969.5100
2023-01-25T00:12:05.465Z,969.5100
2023-01-25T00:12:16.657Z,969.4900
2023-01-25T00:12:27.891Z,969.4900
2023-01-25T00:12:38.947Z,969.4900
2023-01-25T00:12:50.021Z,969.4900
2023-01-25T00:13:01.151Z,969.4900
2023-01-25T00:13:12.226Z,969.4900
2023-01-25T00:13:23.367Z,969.5100
2023-01-25T00:13:34.440Z,969.5100
2023-01-25T00:13:45.619Z,969.5100
2023-01-25T00:13:56.824Z,969.5100
2023-01-25T00:14:08.049Z,969.5100
2023-01-25T00:14:19.292Z,969.5100
2023-01-25T00:14:30.357Z,969.4900
2023-01-25T00:14:41.437Z,969.4900
2023-01-25T00:14:52.516Z,969.4700
2023-01-25T00:15:03.582Z,969.4700
2023-01-25T00:15:14.649Z,969.4700
2023-01-25T00:15:25.689Z,969.4900
2023-01-25T00:15:36.727Z,969.4700
2023-01-25T00:15:47.776Z,969.4700
2023-01-25T00:15:58.862Z,969.4700
2023-01-25T00:16:09.996Z,969.4700
2023-01-25T00:16:21.178Z,969.3900
2023-01-25T00:16:32.554Z,969.3900
2023-01-25T00:16:43.694Z,969.3900
2023-01-25T00:16:54.803Z,969.3900
2023-01-25T00:17:05.939Z,969.3900
2023-01-25T00:17:17.137Z,969.3700
2023-01-25T00:17:28.338Z,969.3700
2023-01-25T00:17:39.530Z,969.3700
2023-01-25T00:17:50.764Z,969.3700
2023-01-25T00:18:01.824Z,969.3700
2023-01-25T00:18:12.965Z,969.3500
2023-01-25T00:18:24.040Z,969.3500
2023-01-25T00:18:35.221Z,969.3500
2023-01-25T00:18:46.295Z,969.3700
2023-01-25T00:18:57.368Z,969.3500
2023-01-25T00:19:08.507Z,969.3700
2023-01-25T00:19:19.778Z,969.3700
2023-01-25T00:19:30.940Z,969.3700
2023-01-25T00:19:42.109Z,969.3900
2023-01-25T00:19:53.198Z,969.3500
2023-01-25T00:20:04.289Z,969.3700
2023-01-25T00:20:15.388Z,969.3700
2023-01-25T00:20:26.598Z,969.3900
2023-01-25T00:20:37.709Z,969.3900
2023-01-25T00:20:48.750Z,969.4900
2023-01-25T00:20:59.826Z,969.4700
2023-01-25T00:21:11.058Z,969.4900
2023-01-25T00:21:22.307Z,969.4900
2023-01-25T00:21:33.485Z,969.4700
2023-01-25T00:21:44.681Z,969.4700
2023-01-25T00:21:55.882Z,969.4700
2023-01-25T00:22:07.100Z,969.3900
2023-01-25T00:22:18.265Z,969.4700
2023-01-25T00:22:29.376Z,969.4700
2023-01-25T00:22:40.467Z,969.4700
2023-01-25T00:22:51.544Z,969.4700
2023-01-25T00:23:02.642Z,969.4700
2023-01-25T00:23:13.708Z,969.4700
2023-01-25T00:23:24.783Z,969.4700
2023-01-25T00:23:36.037Z,969.4700
2023-01-25T00:23:47.268Z,969.4900
2023-01-25T00:23:58.453Z,969.4900
2023-01-25T00:24:09.699Z,969.4900
2023-01-25T00:24:20.911Z,969.4700
2023-01-25T00:24:32.023Z,969.4700
2023-01-25T00:24:43.217Z,969.4700
2023-01-25T00:24:54.422Z,969.3900
2023-01-25T00:25:06.154Z,969.3900
2023-01-25T00:25:17.516Z,969.3900
2023-01-25T00:25:28.664Z,969.3900
2023-01-25T00:25:39.725Z,969.4700
2023-01-25T00:25:50.807Z,969.4700
2023-01-25T00:26:01.937Z,969.3900
2023-01-25T00:26:12.997Z,969.4700
2023-01-25T00:26:24.068Z,969.4900
2023-01-25T00:26:35.236Z,969.4900
2023-01-25T00:26:46.427Z,969.4900
2023-01-25T00:26:57.505Z,969.4900
2023-01-25T00:27:08.567Z,969.4700
2023-01-25T00:27:19.624Z,969.4700
2023-01-25T00:27:30.850Z,969.4900
2023-01-25T00:27:41.886Z,969.4900
2023-01-25T00:27:52.987Z,969.4900
2023-01-25T00:28:04.179Z,969.4900
2023-01-25T00:28:15.248Z,969.3900
2023-01-25T00:28:26.307Z,969.4700
2023-01-25T00:28:37.448Z,969.4700
2023-01-25T00:28:48.658Z,969.3900
2023-01-25T00:28:59.880Z,969.4900
2023-01-25T00:29:11.068Z,969.4900
2023-01-25T00:29:22.289Z,969.4900
2023-01-25T00:29:33.357Z,969.4900
2023-01-25T00:29:44.436Z,969.4900
2023-01-25T00:29:55.549Z,969.4900
2023-01-25T00:30:06.752Z,969.4900
2023-01-25T00:30:17.828Z,969.4900
2023-01-25T00:30:28.866Z,969.4900
2023-01-25T00:30:39.953Z,969.4900
2023-01-25T00:30:51.018Z,969.5100
2023-01-25T00:31:02.119Z,969.4700
2023-01-25T00:31:13.471Z,969.4700
2023-01-25T00:31:24.746Z,969.4700
2023-01-25T00:31:36.089Z,969.4700
2023-01-25T00:31:47.284Z,969.4700
2023-01-25T00:31:58.525Z,969.4700
2023-01-25T00:32:09.835Z,969.4900
2023-01-25T00:32:21.370Z,969.4900
2023-01-25T00:32:32.630Z,969.4900
2023-01-25T00:32:44.146Z,969.5100
2023-01-25T00:32:55.444Z,969.4700
2023-01-25T00:33:06.583Z,969.4900
2023-01-25T00:33:17.798Z,969.4900
2023-01-25T00:33:28.856Z,969.4700
2023-01-25T00:33:39.952Z,969.4700
2023-01-25T00:33:51.065Z,969.4700
2023-01-25T00:34:02.276Z,969.3900
2023-01-25T00:34:13.463Z,969.3900
2023-01-25T00:34:24.720Z,969.3900
2023-01-25T00:34:35.864Z,969.3900
2023-01-25T00:34:47.085Z,969.3700
2023-01-25T00:34:58.136Z,969.3900
2023-01-25T00:35:09.711Z,969.3900
2023-01-25T00:35:21.002Z,969.3900
2023-01-25T00:35:32.195Z,969.3900
2023-01-25T00:35:43.387Z,969.3900
2023-01-25T00:35:54.577Z,969.3700
2023-01-25T00:36:05.777Z,969.3700
2023-01-25T00:36:16.978Z,969.3700
2023-01-25T00:36:28.055Z,969.3700
2023-01-25T00:36:39.134Z,969.3700
2023-01-25T00:36:50.257Z,969.3700
2023-01-25T00:37:01.490Z,969.3500
2023-01-25T00:37:12.672Z,969.3700
2023-01-25T00:37:23.860Z,969.3500
2023-01-25T00:37:34.927Z,969.3500
2023-01-25T00:37:46.014Z,969.3500
2023-01-25T00:37:57.137Z,969.3500
2023-01-25T00:38:08.347Z,969.3300
2023-01-25T00:38:19.413Z,969.3500
2023-01-25T00:38:30.477Z,969.3500
2023-01-25T00:38:41.538Z,969.3500
2023-01-25T00:38:52.608Z,969.3500
2023-01-25T00:39:03.700Z,969.3500
2023-01-25T00:39:14.904Z,969.3500
2023-01-25T00:39:26.140Z,969.3500
2023-01-25T00:39:37.297Z,969.3500
2023-01-25T00:39:48.349Z,969.3500
2023-01-25T00:39:59.428Z,969.3500
2023-01-25T00:40:10.493Z,969.3300
2023-01-25T00:40:21.583Z,969.3500
2023-01-25T00:40:32.667Z,969.3500
2023-01-25T00:40:43.887Z,969.3500
2023-01-25T00:40:54.967Z,969.3500
2023-01-25T00:41:06.047Z,969.3500
2023-01-25T00:41:17.140Z,969.3300
2023-01-25T00:41:28.205Z,969.3300
2023-01-25T00:41:39.268Z,969.3500
2023-01-25T00:41:50.422Z,969.3500
2023-01-25T00:42:01.488Z,969.3500
2023-01-25T00:42:12.571Z,969.3500
2023-01-25T00:42:23.699Z,969.3700
2023-01-25T00:42:34.924Z,969.3300
2023-01-25T00:42:46.097Z,969.3100
2023-01-25T00:42:57.315Z,969.3100
2023-01-25T00:43:08.379Z,969.3100
2023-01-25T00:43:19.448Z,969.2900
2023-01-25T00:43:30.598Z,969.3100
2023-01-25T00:43:41.784Z,969.3100
2023-01-25T00:43:53.017Z,969.3100
2023-01-25T00:44:04.184Z,969.3100
2023-01-25T00:44:15.265Z,969.3500
2023-01-25T00:44:26.377Z,969.3300
2023-01-25T00:44:37.447Z,969.3300
2023-01-25T00:44:48.701Z,969.3300
2023-01-25T00:44:59.867Z,969.3100
2023-01-25T00:45:11.068Z,969.3100
2023-01-25T00:45:22.175Z,969.3100
2023-01-25T00:45:33.241Z,969.3700
2023-01-25T00:45:44.380Z,969.3500
2023-01-25T00:45:55.683Z,969.3500
2023-01-25T00:46:06.908Z,969.3500
2023-01-25T00:46:18.051Z,969.3500
2023-01-25T00:46:29.208Z,969.3300
2023-01-25T00:46:40.343Z,969.3300
2023-01-25T00:46:51.431Z,969.3500
2023-01-25T00:47:02.487Z,969.3300
2023-01-25T00:47:13.621Z,969.3100
2023-01-25T00:47:24.693Z,969.3300
2023-01-25T00:47:35.780Z,969.3500
2023-01-25T00:47:46.908Z,969.3300
2023-01-25T00:47:57.974Z,969.3300
2023-01-25T00:48:09.027Z,969.3300
2023-01-25T00:48:20.188Z,969.3300
2023-01-25T00:48:31.252Z,969.3100
2023-01-25T00:48:42.328Z,969.2900
2023-01-25T00:48:53.468Z,969.2700
2023-01-25T00:49:04.537Z,969.2700
2023-01-25T00:49:15.607Z,969.2500
2023-01-25T00:49:26.790Z,969.2500
2023-01-25T00:49:37.863Z,969.2300
2023-01-25T00:49:48.944Z,969.2300
2023-01-25T00:50:00.043Z,969.2500
2023-01-25T00:50:11.209Z,969.2700
2023-01-25T00:50:22.444Z,969.2300
2023-01-25T00:50:33.624Z,969.2300
2023-01-25T00:50:44.799Z,969.2300
2023-01-25T00:50:56.024Z,969.2100
2023-01-25T00:51:07.228Z,969.1900
2023-01-25T00:51:18.423Z,969.2100
2023-01-25T00:51:29.468Z,969.2300
2023-01-25T00:51:40.506Z,969.2100
2023-01-25T00:51:51.615Z,969.2100
2023-01-25T00:52:02.678Z,969.1900
2023-01-25T00:52:13.776Z,969.1900
2023-01-25T00:52:24.857Z,969.1900
2023-01-25T00:52:35.926Z,969.2100
2023-01-25T00:52:47.093Z,969.2100
2023-01-25T00:52:58.159Z,969.1900
2023-01-25T00:53:09.241Z,969.1900
2023-01-25T00:53:20.338Z,969.1700
2023-01-25T00:53:31.401Z,969.1900
2023-01-25T00:53:42.487Z,969.1900
2023-01-25T00:53:53.630Z,969.1700
2023-01-25T00:54:04.711Z,969.1700
2023-01-25T00:54:15.778Z,969.1900
2023-01-25T00:54:26.961Z,969.1500
2023-01-25T00:54:38.112Z,969.1700
2023-01-25T00:54:49.311Z,969.1100
2023-01-25T00:55:00.506Z,969.0900
2023-01-25T00:55:11.584Z,969.0900
2023-01-25T00:55:22.670Z,969.0900
2023-01-25T00:55:33.783Z,969.0900
2023-01-25T00:55:44.991Z,969.1100
2023-01-25T00:55:56.067Z,969.1100
2023-01-25T00:56:07.136Z,969.0900
2023-01-25T00:56:18.191Z,969.0900
2023-01-25T00:56:29.269Z,969.0900
2023-01-25T00:56:40.336Z,969.0900
2023-01-25T00:56:51.543Z,969.0900
2023-01-25T00:57:02.757Z,969.0700
2023-01-25T00:57:13.943Z,969.0900
2023-01-25T00:57:25.023Z,969.0500
2023-01-25T00:57:36.096Z,969.0500
2023-01-25T00:57:47.247Z,969.0500
2023-01-25T00:57:58.432Z,969.0500
2023-01-25T00:58:09.531Z,969.0500
2023-01-25T00:58:20.610Z,969.0300
2023-01-25T00:58:31.699Z,969.0300
2023-01-25T00:58:42.904Z,969.0100
2023-01-25T00:58:54.109Z,969.0100
2023-01-25T00:59:05.329Z,969.0100
2023-01-25T00:59:16.507Z,969.0100
2023-01-25T00:59:27.608Z,969.0300
2023-01-25T00:59:38.736Z,969.0300
2023-01-25T00:59:49.794Z,969.0100
2023-01-25T01:00:00.856Z,969.0000
2023-01-25T01:00:11.937Z,969.0000
2023-01-25T01:00:23.018Z,969.0100
2023-01-25T01:00:34.269Z,969.0000
2023-01-25T01:00:45.492Z,968.9800
2023-01-25T01:00:56.756Z,968.9800
2023-01-25T01:01:07.893Z,968.9800
2023-01-25T01:01:19.136Z,968.9600
2023-01-25T01:01:30.654Z,968.9600
2023-01-25T01:01:41.797Z,968.9600
2023-01-25T01:01:52.996Z,968.9400
2023-01-25T01:02:04.063Z,968.9600
2023-01-25T01:02:15.116Z,968.9600
2023-01-25T01:02:26.177Z,968.9600
2023-01-25T01:02:37.459Z,968.9600
2023-01-25T01:02:48.672Z,968.9600
2023-01-25T01:02:59.860Z,968.9800
2023-01-25T01:03:11.118Z,968.9800
2023-01-25T01:03:22.268Z,969.0000
2023-01-25T01:03:33.468Z,969.0100
2023-01-25T01:03:44.658Z,969.0000
2023-01-25T01:03:55.857Z,969.0000
2023-01-25T01:04:07.075Z,969.0000
2023-01-25T01:04:18.319Z,969.0000
2023-01-25T01:04:29.547Z,969.0000
2023-01-25T01:04:40.675Z,968.9800
2023-01-25T01:04:51.935Z,969.0000
2023-01-25T01:05:03.531Z,968.9800
2023-01-25T01:05:14.714Z,968.9800
2023-01-25T01:05:25.800Z,968.9600
2023-01-25T01:05:36.883Z,968.9600
2023-01-25T01:05:47.978Z,968.9600
2023-01-25T01:05:59.049Z,968.9600
2023-01-25T01:06:10.117Z,968.9800
2023-01-25T01:06:21.197Z,968.9800
2023-01-25T01:06:32.383Z,968.9800
2023-01-25T01:06:43.471Z,968.9800
2023-01-25T01:06:54.535Z,968.9600
2023-01-25T01:07:05.641Z,968.9400
2023-01-25T01:07:16.858Z,968.9400
2023-01-25T01:07:28.025Z,968.9400
2023-01-25T01:07:39.234Z,968.9200
2023-01-25T01:07:50.418Z,968.9200
2023-01-25T01:08:01.646Z,968.9200
2023-01-25T01:08:12.817Z,968.9400
2023-01-25T01:08:24.027Z,968.9400
2023-01-25T01:08:35.107Z,968.9400
2023-01-25T01:08:46.166Z,968.9400
2023-01-25T01:08:57.305Z,968.9200
2023-01-25T01:09:08.421Z,968.9000
2023-01-25T01:09:19.495Z,968.9000
2023-01-25T01:09:30.643Z,968.9000
2023-01-25T01:09:41.780Z,968.9200
2023-01-25T01:09:52.834Z,968.9000
2023-01-25T01:10:03.915Z,968.9000
2023-01-25T01:10:15.070Z,968.9200
2023-01-25T01:10:26.264Z,968.9200
2023-01-25T01:10:37.459Z,968.9200
2023-01-25T01:10:48.669Z,968.9200
2023-01-25T01:10:59.907Z,968.9200
2023-01-25T01:11:10.949Z,968.9400
2023-01-25T01:11:21.993Z,968.9400
2023-01-25T01:11:33.147Z,968.9400
2023-01-25T01:11:44.354Z,968.9600
2023-01-25T01:11:55.556Z,968.9800
2023-01-25T01:12:06.753Z,968.9800
2023-01-25T01:12:17.941Z,968.9800
2023-01-25T01:12:28.992Z,969.0000
2023-01-25T01:12:40.081Z,969.0000
2023-01-25T01:12:51.244Z,969.0000
2023-01-25T01:13:02.278Z,968.9800
2023-01-25T01:13:13.353Z,969.0000
2023-01-25T01:13:24.496Z,969.0100
2023-01-25T01:13:35.715Z,969.0300
2023-01-25T01:13:46.893Z,969.0100
2023-01-25T01:13:57.953Z,969.0100
2023-01-25T01:14:08.991Z,969.0100
2023-01-25T01:14:20.186Z,969.0300
2023-01-25T01:14:31.778Z,969.0300
2023-01-25T01:14:42.931Z,969.0300
2023-01-25T01:14:54.128Z,969.0500
2023-01-25T01:15:05.632Z,969.0500
2023-01-25T01:15:16.856Z,969.0700
2023-01-25T01:15:28.022Z,969.0700
2023-01-25T01:15:39.070Z,969.0900
2023-01-25T01:15:50.113Z,969.0900
2023-01-25T01:16:01.295Z,969.0900
2023-01-25T01:16:12.457Z,969.0700
2023-01-25T01:16:23.584Z,969.0900
2023-01-25T01:16:34.760Z,969.1100
2023-01-25T01:16:46.214Z,969.1100
2023-01-25T01:16:58.181Z,969.0900
2023-01-25T01:17:09.226Z,969.1100
2023-01-25T01:17:20.339Z,969.1100
2023-01-25T01:17:31.394Z,969.1100
2023-01-25T01:17:42.748Z,969.1100
2023-01-25T01:17:53.845Z,969.1300
2023-01-25T01:18:04.903Z,969.1700
2023-01-25T01:18:16.035Z,969.1700
2023-01-25T01:18:27.227Z,969.1700
2023-01-25T01:18:38.430Z,969.1300
2023-01-25T01:18:49.617Z,969.1300
2023-01-25T01:19:00.819Z,969.1300
2023-01-25T01:19:12.040Z,969.1300
2023-01-25T01:19:23.228Z,969.1100
2023-01-25T01:19:34.447Z,969.1300
2023-01-25T01:19:45.623Z,969.1300
2023-01-25T01:19:56.824Z,969.1300
2023-01-25T01:20:07.908Z,969.1100
2023-01-25T01:20:18.993Z,969.1100
2023-01-25T01:20:30.111Z,969.1100
2023-01-25T01:20:41.167Z,969.1100
2023-01-25T01:20:52.243Z,969.0900
2023-01-25T01:21:03.405Z,969.0700
2023-01-25T01:21:14.629Z,969.0700
2023-01-25T01:21:25.797Z,969.0900
2023-01-25T01:21:36.987Z,969.0700
2023-01-25T01:21:48.080Z,969.0900
2023-01-25T01:21:59.152Z,969.0700
2023-01-25T01:22:10.305Z,969.0700
2023-01-25T01:22:21.343Z,969.0700
2023-01-25T01:22:32.422Z,969.0700
2023-01-25T01:22:43.538Z,969.0700
2023-01-25T01:22:54.608Z,969.1100
2023-01-25T01:23:05.681Z,969.0700
2023-01-25T01:23:16.836Z,969.0900
2023-01-25T01:23:27.896Z,969.0900
2023-01-25T01:23:38.989Z,969.0700
2023-01-25T01:23:50.135Z,969.0900
2023-01-25T01:24:01.357Z,969.0900
2023-01-25T01:24:12.571Z,969.0900
2023-01-25T01:24:23.816Z,969.1300
2023-01-25T01:24:34.888Z,969.1300
2023-01-25T01:24:46.112Z,969.1300
2023-01-25T01:24:57.296Z,969.1100
2023-01-25T01:25:09.002Z,969.0900
2023-01-25T01:25:20.378Z,969.1100
2023-01-25T01:25:31.548Z,969.1300
2023-01-25T01:25:42.737Z,969.1100
2023-01-25T01:25:53.961Z,969.0900
2023-01-25T01:26:05.151Z,969.0900
2023-01-25T01:26:16.348Z,969.1100
2023-01-25T01:26:27.392Z,969.1300
2023-01-25T01:26:38.457Z,969.1300
2023-01-25T01:26:49.532Z,969.1500
2023-01-25T01:27:00.588Z,969.1700
2023-01-25T01:27:11.700Z,969.1500
2023-01-25T01:27:22.995Z,969.1500
2023-01-25T01:27:34.045Z,969.1500
2023-01-25T01:27:45.124Z,969.1500
2023-01-25T01:27:56.247Z,969.1300
2023-01-25T01:28:07.369Z,969.1300
2023-01-25T01:28:18.454Z,969.1300
2023-01-25T01:28:29.518Z,969.1300
2023-01-25T01:28:40.596Z,969.0900
2023-01-25T01:28:51.657Z,969.1100
2023-01-25T01:29:02.749Z,969.1300
2023-01-25T01:29:13.803Z,969.1500
2023-01-25T01:29:24.857Z,969.1300
2023-01-25T01:29:36.067Z,969.1300
2023-01-25T01:29:47.230Z,969.1300
2023-01-25T01:29:58.430Z,969.1500
2023-01-25T01:30:09.608Z,969.1500
2023-01-25T01:30:20.706Z,969.1300
2023-01-25T01:30:31.787Z,969.1500
2023-01-25T01:30:42.935Z,969.1500
2023-01-25T01:30:53.970Z,969.1300
2023-01-25T01:31:05.046Z,969.1100
2023-01-25T01:31:16.314Z,969.1500
2023-01-25T01:31:27.502Z,969.1300
2023-01-25T01:31:38.779Z,969.1300
2023-01-25T01:31:50.025Z,969.1100
2023-01-25T01:32:01.239Z,969.1100
2023-01-25T01:32:12.745Z,969.1300
2023-01-25T01:32:24.200Z,969.1100
2023-01-25T01:32:35.450Z,969.1100
2023-01-25T01:32:46.735Z,969.1100
2023-01-25T01:32:57.951Z,969.1100
2023-01-25T01:33:09.034Z,969.1100
2023-01-25T01:33:20.119Z,969.0900
2023-01-25T01:33:31.227Z,969.0900
2023-01-25T01:33:42.416Z,969.0900
2023-01-25T01:33:53.463Z,969.1100
2023-01-25T01:34:04.537Z,969.0900
2023-01-25T01:34:15.709Z,969.1100
2023-01-25T01:34:26.917Z,969.1100
2023-01-25T01:34:38.045Z,969.1100
2023-01-25T01:34:49.107Z,969.1100
2023-01-25T01:35:00.173Z,969.1100
2023-01-25T01:35:11.397Z,969.1300
2023-01-25T01:35:22.588Z,969.1300
2023-01-25T01:35:33.801Z,969.1100
2023-01-25T01:35:44.988Z,969.1100
2023-01-25T01:35:56.184Z,969.1300
2023-01-25T01:36:07.367Z,969.1300
2023-01-25T01:36:18.577Z,969.1300
2023-01-25T01:36:29.789Z,969.1300
2023-01-25T01:36:40.982Z,969.1300
2023-01-25T01:36:52.177Z,969.1300
2023-01-25T01:37:03.255Z,969.1300
2023-01-25T01:37:14.297Z,969.1300
2023-01-25T01:37:25.468Z,969.1300
2023-01-25T01:37:36.548Z,969.1300
2023-01-25T01:37:47.607Z,969.1300
2023-01-25T01:37:58.736Z,969.1100
2023-01-25T01:38:09.797Z,969.1500
2023-01-25T01:38:20.868Z,969.1500
2023-01-25T01:38:31.913Z,969.1500
2023-01-25T01:38:43.013Z,969.1500
2023-01-25T01:38:54.112Z,969.1900
2023-01-25T01:39:05.296Z,969.1900
2023-01-25T01:39:16.356Z,969.2100
2023-01-25T01:39:27.708Z,969.2300
2023-01-25T01:39:38.947Z,969.2100
2023-01-25T01:39:50.107Z,969.1700
2023-01-25T01:40:01.173Z,969.1500
2023-01-25T01:40:12.238Z,969.1300
2023-01-25T01:40:23.287Z,969.1500
2023-01-25T01:40:34.367Z,969.1500
2023-01-25T01:40:45.458Z,969.1500
2023-01-25T01:40:56.667Z,969.1500
2023-01-25T01:41:07.856Z,969.1500
2023-01-25T01:41:18.966Z,969.1300
2023-01-25T01:41:30.024Z,969.1300
2023-01-25T01:41:41.139Z,969.1300
2023-01-25T01:41:52.337Z,969.1300
2023-01-25T01:42:03.543Z,969.1300
2023-01-25T01:42:14.737Z,969.1500
2023-01-25T01:42:25.955Z,969.1500
2023-01-25T01:42:37.018Z,969.1500
2023-01-25T01:42:48.093Z,969.1500
2023-01-25T01:42:59.263Z,969.1500
2023-01-25T01:43:10.437Z,969.1700
2023-01-25T01:43:21.631Z,969.1700
2023-01-25T01:43:32.707Z,969.1700
2023-01-25T01:43:43.802Z,969.1700
2023-01-25T01:43:54.851Z,969.1700
2023-01-25T01:44:05.898Z,969.1700
2023-01-25T01:44:16.997Z,969.1500
2023-01-25T01:44:28.027Z,969.1700
2023-01-25T01:44:39.246Z,969.1700
2023-01-25T01:44:50.331Z,969.1700
2023-01-25T01:45:01.463Z,969.1700
2023-01-25T01:45:12.659Z,969.1700
2023-01-25T01:45:23.861Z,969.1700
2023-01-25T01:45:35.094Z,969.1900
2023-01-25T01:45:46.315Z,969.1700
2023-01-25T01:45:57.405Z,969.1700
2023-01-25T01:46:08.527Z,969.1300
2023-01-25T01:46:19.612Z,969.1300
2023-01-25T01:46:30.747Z,969.1300
2023-01-25T01:46:41.809Z,969.1500
2023-01-25T01:46:52.879Z,969.1900
2023-01-25T01:47:04.022Z,969.1900
2023-01-25T01:47:15.216Z,969.1900
2023-01-25T01:47:26.447Z,969.1900
2023-01-25T01:47:37.508Z,969.1900
2023-01-25T01:47:48.567Z,969.1700
2023-01-25T01:47:59.633Z,969.1700
2023-01-25T01:48:10.722Z,969.1500
2023-01-25T01:48:21.783Z,969.1500
2023-01-25T01:48:32.982Z,969.1700
2023-01-25T01:48:44.198Z,969.1500
2023-01-25T01:48:55.376Z,969.1500
2023-01-25T01:49:06.595Z,969.1500
2023-01-25T01:49:17.796Z,969.1500
2023-01-25T01:49:28.854Z,969.1500
2023-01-25T01:49:39.946Z,969.1500
2023-01-25T01:49:51.062Z,969.1300
2023-01-25T01:50:02.136Z,969.1500
2023-01-25T01:50:13.207Z,969.1700
2023-01-25T01:50:24.355Z,969.1500
2023-01-25T01:50:35.413Z,969.1700
2023-01-25T01:50:46.473Z,969.1500
2023-01-25T01:50:57.633Z,969.1500
2023-01-25T01:51:08.830Z,969.1500
2023-01-25T01:51:20.023Z,969.1500
2023-01-25T01:51:31.217Z,969.1700
2023-01-25T01:51:42.293Z,969.1700
2023-01-25T01:51:53.357Z,969.1900
2023-01-25T01:52:04.413Z,969.2100
2023-01-25T01:52:15.456Z,969.2100
2023-01-25T01:52:26.583Z,969.2100
2023-01-25T01:52:37.647Z,969.2100
2023-01-25T01:52:48.724Z,969.2300
2023-01-25T01:52:59.808Z,969.2300
2023-01-25T01:53:10.887Z,969.1900
2023-01-25T01:53:21.965Z,969.1900
2023-01-25T01:53:33.159Z,969.1900
2023-01-25T01:53:44.348Z,969.2100
2023-01-25T01:53:55.579Z,969.2100
2023-01-25T01:54:06.632Z,969.2100
2023-01-25T01:54:17.709Z,969.2100
2023-01-25T01:54:28.814Z,969.1900
2023-01-25T01:54:40.039Z,969.1900
2023-01-25T01:54:51.267Z,969.1900
2023-01-25T01:55:02.326Z,969.1900
2023-01-25T01:55:13.399Z,969.1700
2023-01-25T01:55:24.509Z,969.1700
2023-01-25T01:55:35.587Z,969.1900
2023-01-25T01:55:46.663Z,969.1900
2023-01-25T01:55:57.782Z,969.1700
2023-01-25T01:56:08.980Z,969.1700
2023-01-25T01:56:20.283Z,969.1700
2023-01-25T01:56:31.441Z,969.1700
2023-01-25T01:56:42.488Z,969.1500
2023-01-25T01:56:53.547Z,969.1300
2023-01-25T01:57:04.664Z,969.1300
2023-01-25T01:57:15.853Z,969.1300
2023-01-25T01:57:27.065Z,969.1300
2023-01-25T01:57:38.271Z,969.1300
2023-01-25T01:57:49.345Z,969.1300
2023-01-25T01:58:00.427Z,969.1300
2023-01-25T01:58:11.520Z,969.1300
2023-01-25T01:58:22.588Z,969.1300
2023-01-25T01:58:33.647Z,969.1300
2023-01-25T01:58:44.822Z,969.1100
2023-01-25T01:58:55.896Z,969.1100
2023-01-25T01:59:06.964Z,969.1100
2023-01-25T01:59:18.111Z,969.0900
2023-01-25T01:59:29.306Z,969.0700
2023-01-25T01:59:40.507Z,969.0700
2023-01-25T01:59:51.733Z,969.0700
2023-01-25T02:00:02.779Z,969.0700
2023-01-25T02:00:13.836Z,969.0500
2023-01-25T02:00:24.977Z,969.0500
2023-01-25T02:00:36.182Z,969.0300
2023-01-25T02:00:47.377Z,969.0500
2023-01-25T02:00:58.638Z,969.0700
2023-01-25T02:01:09.861Z,969.0700
2023-01-25T02:01:21.006Z,969.0700
2023-01-25T02:01:32.301Z,969.0500
2023-01-25T02:01:43.587Z,969.0500
2023-01-25T02:01:54.917Z,969.0700
2023-01-25T02:02:06.195Z,969.0700
2023-01-25T02:02:17.385Z,969.0500
2023-01-25T02:02:28.629Z,969.0300
2023-01-25T02:02:39.804Z,969.0300
2023-01-25T02:02:50.996Z,969.0300
2023-01-25T02:03:02.445Z,969.0100
2023-01-25T02:03:13.627Z,969.0100
2023-01-25T02:03:24.705Z,969.0000
2023-01-25T02:03:35.767Z,969.0000
2023-01-25T02:03:46.886Z,968.9800
2023-01-25T02:03:57.950Z,968.9800
2023-01-25T02:04:09.016Z,969.0000
2023-01-25T02:04:20.183Z,969.0000
2023-01-25T02:04:31.380Z,969.0000
2023-01-25T02:04:42.582Z,969.0000
2023-01-25T02:04:53.808Z,968.9800
2023-01-25T02:05:05.507Z,968.9800
2023-01-25T02:05:16.867Z,969.0100
2023-01-25T02:05:28.027Z,969.0100
2023-01-25T02:05:39.229Z,969.0100
2023-01-25T02:05:50.426Z,969.0500
2023-01-25T02:06:01.615Z,969.0300
2023-01-25T02:06:12.687Z,969.0300
2023-01-25T02:06:23.939Z,969.0300
2023-01-25T02:06:34.996Z,969.0000
2023-01-25T02:06:46.097Z,968.9800
2023-01-25T02:06:57.175Z,969.0000
2023-01-25T02:07:08.236Z,968.9800
2023-01-25T02:07:19.389Z,968.9800
2023-01-25T02:07:30.456Z,968.9800
2023-01-25T02:07:41.537Z,968.9600
2023-01-25T02:07:52.680Z,968.9600
2023-01-25T02:08:03.743Z,968.9400
2023-01-25T02:08:14.831Z,968.9600
2023-01-25T02:08:25.895Z,968.9600
2023-01-25T02:08:37.146Z,968.9400
2023-01-25T02:08:48.348Z,968.9200
2023-01-25T02:08:59.583Z,968.9000
2023-01-25T02:09:10.660Z,968.8800
2023-01-25T02:09:21.716Z,968.8800
2023-01-25T02:09:32.813Z,968.8800
2023-01-25T02:09:44.029Z,968.8800
2023-01-25T02:09:55.279Z,968.8800
2023-01-25T02:10:06.341Z,968.9000
2023-01-25T02:10:17.403Z,968.9000
2023-01-25T02:10:28.515Z,968.9000
2023-01-25T02:10:39.571Z,968.9000
2023-01-25T02:10:50.642Z,968.9000
2023-01-25T02:11:01.799Z,968.8800